createdAt,value
2018-05-10T00:00:19.007Z,980.71
2018-05-10T00:01:19.237Z,980.70
2018-05-10T00:02:19.467Z,980.71
2018-05-10T00:03:19.700Z,980.69
2018-05-10T00:04:19.928Z,980.72
2018-05-10T00:05:20.160Z,980.68
2018-05-10T00:06:20.389Z,980.72
2018-05-10T00:07:20.616Z,980.69
2018-05-10T00:08:20.857Z,980.69
2018-05-10T00:09:21.077Z,980.71
2018-05-10T00:10:21.309Z,980.66
2018-05-10T00:11:21.550Z,980.68
2018-05-10T00:12:21.771Z,980.64
2018-05-10T00:13:22.000Z,980.63
2018-05-10T00:14:22.221Z,980.66
2018-05-10T00:15:22.451Z,980.63
2018-05-10T00:16:22.679Z,980.58
2018-05-10T00:17:22.908Z,980.59
2018-05-10T00:18:23.134Z,980.59
2018-05-10T00:19:23.358Z,980.58
2018-05-10T00:20:23.585Z,980.56
2018-05-10T00:21:23.812Z,980.54
2018-05-10T00:22:24.050Z,980.55
2018-05-10T00:23:24.274Z,980.53
2018-05-10T00:24:24.608Z,980.51
2018-05-10T00:25:24.738Z,980.47
2018-05-10T00:26:24.973Z,980.50
2018-05-10T00:27:25.196Z,980.47
2018-05-10T00:28:25.422Z,980.48
2018-05-10T00:29:25.665Z,980.45
2018-05-10T00:30:25.879Z,980.48
2018-05-10T00:31:26.099Z,980.45
2018-05-10T00:32:26.330Z,980.47
2018-05-10T00:33:26.558Z,980.49
2018-05-10T00:34:26.789Z,980.49
2018-05-10T00:35:27.018Z,980.45
2018-05-10T00:36:27.248Z,980.46
2018-05-10T00:37:27.485Z,980.49
2018-05-10T00:38:27.713Z,980.46
2018-05-10T00:39:27.952Z,980.47
2018-05-10T00:40:28.183Z,980.44
2018-05-10T00:41:28.409Z,980.44
2018-05-10T00:42:28.643Z,980.44
2018-05-10T00:43:28.872Z,980.45
2018-05-10T00:44:29.108Z,980.44
2018-05-10T00:45:29.337Z,980.44
2018-05-10T00:46:29.558Z,980.41
2018-05-10T00:47:29.793Z,980.41
2018-05-10T00:48:30.023Z,980.45
2018-05-10T00:49:30.250Z,980.43
2018-05-10T00:50:30.478Z,980.45
2018-05-10T00:51:30.709Z,980.42
2018-05-10T00:52:30.936Z,980.40
2018-05-10T00:53:31.169Z,980.42
2018-05-10T00:54:31.396Z,980.36
2018-05-10T00:55:31.627Z,980.39
2018-05-10T00:56:31.857Z,980.36
2018-05-10T00:57:32.091Z,980.39
2018-05-10T00:58:32.317Z,980.36
2018-05-10T00:59:32.546Z,980.36
2018-05-10T01:00:32.780Z,980.35
2018-05-10T01:01:33.015Z,980.38
2018-05-10T01:02:33.243Z,980.36
2018-05-10T01:03:33.465Z,980.37
2018-05-10T01:04:33.701Z,980.35
2018-05-10T01:05:33.930Z,980.38
2018-05-10T01:06:34.158Z,980.36
2018-05-10T01:07:34.389Z,980.41
2018-05-10T01:08:34.616Z,980.38
2018-05-10T01:09:34.846Z,980.42
2018-05-10T01:10:35.075Z,980.45
2018-05-10T01:11:35.312Z,980.44
2018-05-10T01:12:35.542Z,980.43
2018-05-10T01:13:35.772Z,980.44
2018-05-10T01:14:35.989Z,980.43
2018-05-10T01:15:36.211Z,980.47
2018-05-10T01:16:36.439Z,980.45
2018-05-10T01:17:36.672Z,980.47
2018-05-10T01:18:36.902Z,980.47
2018-05-10T01:19:37.127Z,980.52
2018-05-10T01:20:37.361Z,980.49
2018-05-10T01:21:37.596Z,980.47
2018-05-10T01:22:37.824Z,980.45
2018-05-10T01:23:38.052Z,980.49
2018-05-10T01:24:38.318Z,980.47
2018-05-10T01:25:38.549Z,980.49
2018-05-10T01:26:38.778Z,980.44
2018-05-10T01:27:39.007Z,980.47
2018-05-10T01:28:39.237Z,980.42
2018-05-10T01:29:39.468Z,980.41
2018-05-10T01:30:39.692Z,980.40
2018-05-10T01:31:39.923Z,980.35
2018-05-10T01:32:40.154Z,980.37
2018-05-10T01:33:40.383Z,980.35
2018-05-10T01:34:40.613Z,980.37
2018-05-10T01:35:40.839Z,980.31
2018-05-10T01:36:41.072Z,980.33
2018-05-10T01:37:41.301Z,980.30
2018-05-10T01:38:41.529Z,980.28
2018-05-10T01:39:41.758Z,980.31
2018-05-10T01:40:41.990Z,980.28
2018-05-10T01:41:42.208Z,980.28
2018-05-10T01:42:42.439Z,980.30
2018-05-10T01:43:42.668Z,980.32
2018-05-10T01:44:42.896Z,980.34
2018-05-10T01:45:43.123Z,980.37
2018-05-10T01:46:43.351Z,980.32
2018-05-10T01:47:43.632Z,980.36
2018-05-10T01:48:43.811Z,980.36
2018-05-10T01:49:44.047Z,980.37
2018-05-10T01:50:44.269Z,980.40
2018-05-10T01:51:44.500Z,980.42
2018-05-10T01:52:44.737Z,980.41
2018-05-10T01:53:44.954Z,980.41
2018-05-10T01:54:45.178Z,980.42
2018-05-10T01:55:45.406Z,980.44
2018-05-10T01:56:45.635Z,980.41
2018-05-10T01:57:45.865Z,980.41
2018-05-10T01:58:46.108Z,980.42
2018-05-10T01:59:46.317Z,980.47
2018-05-10T02:00:46.550Z,980.44
2018-05-10T02:01:46.780Z,980.44
2018-05-10T02:02:47.009Z,980.43
2018-05-10T02:03:47.238Z,980.44
2018-05-10T02:04:47.473Z,980.46
2018-05-10T02:05:47.693Z,980.45
2018-05-10T02:06:47.925Z,980.45
2018-05-10T02:07:48.152Z,980.43
2018-05-10T02:08:48.381Z,980.42
2018-05-10T02:09:48.612Z,980.40
2018-05-10T02:10:48.836Z,980.39
2018-05-10T02:11:49.065Z,980.44
2018-05-10T02:12:49.293Z,980.41
2018-05-10T02:13:49.523Z,980.46
2018-05-10T02:14:49.765Z,980.44
2018-05-10T02:15:49.978Z,980.39
2018-05-10T02:16:50.208Z,980.40
2018-05-10T02:17:50.436Z,980.40
2018-05-10T02:18:50.665Z,980.40
2018-05-10T02:19:50.893Z,980.37
2018-05-10T02:20:51.129Z,980.39
2018-05-10T02:21:51.357Z,980.37
2018-05-10T02:22:51.589Z,980.38
2018-05-10T02:23:51.813Z,980.39
2018-05-10T02:24:52.045Z,980.37
2018-05-10T02:25:52.276Z,980.41
2018-05-10T02:26:52.502Z,980.44
2018-05-10T02:27:52.730Z,980.43
2018-05-10T02:28:52.960Z,980.44
2018-05-10T02:29:53.188Z,980.43
2018-05-10T02:30:53.421Z,980.41
2018-05-10T02:31:53.647Z,980.41
2018-05-10T02:32:53.877Z,980.41
2018-05-10T02:33:54.104Z,980.42
2018-05-10T02:34:54.333Z,980.44
2018-05-10T02:35:54.564Z,980.46
2018-05-10T02:36:54.795Z,980.52
2018-05-10T02:37:55.022Z,980.55
2018-05-10T02:38:55.252Z,980.60
2018-05-10T02:39:55.478Z,980.58
2018-05-10T02:40:55.711Z,980.54
2018-05-10T02:41:55.944Z,980.54
2018-05-10T02:42:56.172Z,980.55
2018-05-10T02:43:56.405Z,980.53
2018-05-10T02:44:56.705Z,980.52
2018-05-10T02:45:56.864Z,980.53
2018-05-10T02:46:57.090Z,980.56
2018-05-10T02:47:57.318Z,980.59
2018-05-10T02:48:57.547Z,980.61
2018-05-10T02:49:57.776Z,980.62
2018-05-10T02:50:58.007Z,980.57
2018-05-10T02:51:58.237Z,980.60
2018-05-10T02:52:58.467Z,980.55
2018-05-10T02:53:58.689Z,980.54
2018-05-10T02:54:58.928Z,980.55
2018-05-10T02:55:59.148Z,980.55
2018-05-10T02:56:59.379Z,980.52
2018-05-10T02:57:59.606Z,980.57
2018-05-10T02:58:59.835Z,980.54
2018-05-10T03:00:00.066Z,980.57
2018-05-10T03:01:00.300Z,980.54
2018-05-10T03:02:00.526Z,980.52
2018-05-10T03:03:00.757Z,980.52
2018-05-10T03:04:00.991Z,980.51
2018-05-10T03:05:01.211Z,980.53
2018-05-10T03:06:01.445Z,980.55
2018-05-10T03:07:01.673Z,980.54
2018-05-10T03:08:01.903Z,980.49
2018-05-10T03:09:02.143Z,980.48
2018-05-10T03:10:02.365Z,980.54
2018-05-10T03:11:02.587Z,980.52
2018-05-10T03:12:02.812Z,980.53
2018-05-10T03:13:03.044Z,980.56
2018-05-10T03:14:03.272Z,980.60
2018-05-10T03:15:03.501Z,980.54
2018-05-10T03:16:03.729Z,980.57
2018-05-10T03:17:03.968Z,980.56
2018-05-10T03:18:04.198Z,980.56
2018-05-10T03:19:04.423Z,980.52
2018-05-10T03:20:04.652Z,980.50
2018-05-10T03:21:04.881Z,980.51
2018-05-10T03:22:05.112Z,980.49
2018-05-10T03:23:05.342Z,980.46
2018-05-10T03:24:05.570Z,980.49
2018-05-10T03:25:05.798Z,980.51
2018-05-10T03:26:06.025Z,980.51
2018-05-10T03:27:06.257Z,980.49
2018-05-10T03:28:06.482Z,980.50
2018-05-10T03:29:06.708Z,980.44
2018-05-10T03:30:06.934Z,980.46
2018-05-10T03:31:07.165Z,980.48
2018-05-10T03:32:07.393Z,980.44
2018-05-10T03:33:07.628Z,980.45
2018-05-10T03:34:07.849Z,980.46
2018-05-10T03:35:08.072Z,980.47
2018-05-10T03:36:08.326Z,980.49
2018-05-10T03:37:08.553Z,980.50
2018-05-10T03:38:08.782Z,980.49
2018-05-10T03:39:09.010Z,980.51
2018-05-10T03:40:09.241Z,980.53
2018-05-10T03:41:09.468Z,980.52
2018-05-10T03:42:09.696Z,980.53
2018-05-10T03:43:09.928Z,980.50
2018-05-10T03:44:10.160Z,980.49
2018-05-10T03:45:10.393Z,980.51
2018-05-10T03:46:10.620Z,980.52
2018-05-10T03:47:10.845Z,980.53
2018-05-10T03:48:11.074Z,980.55
2018-05-10T03:49:11.303Z,980.54
2018-05-10T03:50:11.534Z,980.53
2018-05-10T03:51:11.762Z,980.55
2018-05-10T03:52:11.991Z,980.53
2018-05-10T03:53:12.222Z,980.53
2018-05-10T03:54:12.447Z,980.53
2018-05-10T03:55:12.674Z,980.57
2018-05-10T03:56:12.902Z,980.53
2018-05-10T03:57:13.130Z,980.57
2018-05-10T03:58:13.360Z,980.56
2018-05-10T03:59:13.599Z,980.57
2018-05-10T04:00:13.820Z,980.59
2018-05-10T04:01:14.053Z,980.55
2018-05-10T04:02:14.279Z,980.60
2018-05-10T04:03:14.509Z,980.62
2018-05-10T04:04:14.743Z,980.63
2018-05-10T04:05:14.964Z,980.61
2018-05-10T04:06:15.195Z,980.61
2018-05-10T04:07:15.431Z,980.62
2018-05-10T04:08:15.655Z,980.61
2018-05-10T04:09:15.884Z,980.61
2018-05-10T04:10:16.115Z,980.63
2018-05-10T04:11:16.341Z,980.66
2018-05-10T04:12:16.578Z,980.61
2018-05-10T04:13:16.803Z,980.60
2018-05-10T04:14:17.034Z,980.65
2018-05-10T04:15:17.263Z,980.64
2018-05-10T04:16:17.488Z,980.66
2018-05-10T04:17:17.717Z,980.63
2018-05-10T04:18:17.947Z,980.68
2018-05-10T04:19:18.180Z,980.70
2018-05-10T04:20:18.408Z,980.67
2018-05-10T04:21:18.630Z,980.69
2018-05-10T04:22:18.863Z,980.68
2018-05-10T04:23:19.093Z,980.69
2018-05-10T04:24:19.322Z,980.71
2018-05-10T04:25:19.548Z,980.70
2018-05-10T04:26:19.782Z,980.71
2018-05-10T04:27:20.012Z,980.71
2018-05-10T04:28:20.240Z,980.75
2018-05-10T04:29:20.471Z,980.76
2018-05-10T04:30:20.696Z,980.75
2018-05-10T04:31:20.933Z,980.76
2018-05-10T04:32:21.150Z,980.73
2018-05-10T04:33:21.377Z,980.76
2018-05-10T04:34:21.606Z,980.74
2018-05-10T04:35:21.835Z,980.71
2018-05-10T04:36:22.063Z,980.74
2018-05-10T04:37:22.296Z,980.71
2018-05-10T04:38:22.526Z,980.74
2018-05-10T04:39:22.755Z,980.72
2018-05-10T04:40:22.985Z,980.72
2018-05-10T04:41:23.213Z,980.73
2018-05-10T04:42:23.441Z,980.73
2018-05-10T04:43:23.669Z,980.75
2018-05-10T04:44:23.898Z,980.71
2018-05-10T04:45:24.122Z,980.73
2018-05-10T04:46:24.355Z,980.77
2018-05-10T04:47:24.577Z,980.76
2018-05-10T04:48:24.810Z,980.77
2018-05-10T04:49:25.040Z,980.77
2018-05-10T04:50:25.277Z,980.77
2018-05-10T04:51:25.506Z,980.80
2018-05-10T04:52:25.738Z,980.80
2018-05-10T04:53:26.002Z,980.82
2018-05-10T04:54:26.231Z,980.81
2018-05-10T04:55:26.460Z,980.85
2018-05-10T04:56:26.696Z,980.83
2018-05-10T04:57:26.924Z,980.86
2018-05-10T04:58:27.153Z,980.88
2018-05-10T04:59:27.378Z,980.90
2018-05-10T05:00:27.612Z,980.90
2018-05-10T05:01:27.843Z,980.89
2018-05-10T05:02:28.072Z,980.92
2018-05-10T05:03:28.332Z,980.91
2018-05-10T05:04:28.530Z,980.86
2018-05-10T05:05:28.760Z,980.88
2018-05-10T05:06:28.987Z,980.86
2018-05-10T05:07:29.214Z,980.86
2018-05-10T05:08:29.445Z,980.88
2018-05-10T05:09:29.672Z,980.86
2018-05-10T05:10:29.900Z,980.86
2018-05-10T05:11:30.135Z,980.86
2018-05-10T05:12:30.359Z,980.86
2018-05-10T05:13:30.593Z,980.89
2018-05-10T05:14:30.824Z,980.92
2018-05-10T05:15:31.049Z,980.94
2018-05-10T05:16:31.277Z,980.95
2018-05-10T05:17:31.510Z,980.97
2018-05-10T05:18:31.737Z,980.98
2018-05-10T05:19:31.968Z,981.01
2018-05-10T05:20:32.197Z,981.00
2018-05-10T05:21:32.450Z,981.01
2018-05-10T05:22:32.668Z,981.04
2018-05-10T05:23:32.967Z,981.03
2018-05-10T05:24:33.095Z,981.02
2018-05-10T05:25:33.323Z,981.01
2018-05-10T05:26:33.552Z,981.04
2018-05-10T05:27:33.784Z,981.03
2018-05-10T05:28:34.010Z,981.05
2018-05-10T05:29:34.236Z,981.04
2018-05-10T05:30:34.468Z,981.04
2018-05-10T05:31:34.695Z,981.03
2018-05-10T05:32:34.933Z,981.07
2018-05-10T05:33:35.150Z,981.08
2018-05-10T05:34:35.382Z,981.09
2018-05-10T05:35:35.708Z,981.06
2018-05-10T05:36:35.929Z,981.06
2018-05-10T05:37:36.066Z,981.09
2018-05-10T05:38:36.300Z,981.07
2018-05-10T05:39:36.536Z,981.09
2018-05-10T05:40:36.757Z,981.08
2018-05-10T05:41:36.981Z,981.07
2018-05-10T05:42:37.211Z,981.10
2018-05-10T05:43:37.534Z,981.08
2018-05-10T05:44:37.671Z,981.05
2018-05-10T05:45:37.904Z,981.12
2018-05-10T05:46:38.136Z,981.07
2018-05-10T05:47:38.367Z,981.04
2018-05-10T05:48:38.597Z,981.09
2018-05-10T05:49:38.827Z,981.10
2018-05-10T05:50:39.054Z,981.12
2018-05-10T05:51:39.279Z,981.14
2018-05-10T05:52:39.506Z,981.11
2018-05-10T05:53:39.741Z,981.16
2018-05-10T05:54:39.968Z,981.15
2018-05-10T05:55:40.197Z,981.20
2018-05-10T05:56:40.427Z,981.18
2018-05-10T05:57:40.655Z,981.20
2018-05-10T05:58:40.883Z,981.23
2018-05-10T05:59:41.112Z,981.29
2018-05-10T06:00:41.341Z,981.30
2018-05-10T06:01:41.571Z,981.31
2018-05-10T06:02:41.801Z,981.33
2018-05-10T06:03:42.036Z,981.35
2018-05-10T06:04:42.263Z,981.38
2018-05-10T06:05:42.490Z,981.38
2018-05-10T06:06:42.718Z,981.36
2018-05-10T06:07:42.949Z,981.40
2018-05-10T06:08:43.201Z,981.42
2018-05-10T06:09:43.409Z,981.41
2018-05-10T06:10:43.634Z,981.38
2018-05-10T06:11:43.862Z,981.41
2018-05-10T06:12:44.089Z,981.38
2018-05-10T06:13:44.320Z,981.43
2018-05-10T06:14:44.549Z,981.41
2018-05-10T06:15:44.806Z,981.41
2018-05-10T06:16:45.010Z,981.44
2018-05-10T06:17:45.242Z,981.41
2018-05-10T06:18:45.476Z,981.39
2018-05-10T06:19:45.708Z,981.39
2018-05-10T06:20:45.935Z,981.37
2018-05-10T06:21:46.166Z,981.39
2018-05-10T06:22:46.398Z,981.38
2018-05-10T06:23:46.628Z,981.39
2018-05-10T06:24:46.965Z,981.40
2018-05-10T06:25:47.093Z,981.38
2018-05-10T06:26:47.323Z,981.39
2018-05-10T06:27:47.554Z,981.36
2018-05-10T06:28:47.783Z,981.39
2018-05-10T06:29:48.016Z,981.40
2018-05-10T06:30:48.245Z,981.38
2018-05-10T06:31:48.480Z,981.45
2018-05-10T06:32:48.736Z,981.43
2018-05-10T06:33:48.962Z,981.39
2018-05-10T06:34:49.189Z,981.46
2018-05-10T06:35:49.419Z,981.45
2018-05-10T06:36:49.651Z,981.50
2018-05-10T06:37:49.883Z,981.56
2018-05-10T06:38:50.113Z,981.55
2018-05-10T06:39:50.345Z,981.60
2018-05-10T06:40:50.573Z,981.62
2018-05-10T06:41:50.804Z,981.65
2018-05-10T06:42:51.037Z,981.65
2018-05-10T06:43:51.268Z,981.70
2018-05-10T06:44:51.502Z,981.73
2018-05-10T06:45:51.730Z,981.69
2018-05-10T06:46:52.025Z,981.75
2018-05-10T06:47:52.196Z,981.75
2018-05-10T06:48:52.429Z,981.76
2018-05-10T06:49:52.661Z,981.79
2018-05-10T06:50:52.891Z,981.81
2018-05-10T06:51:53.125Z,981.82
2018-05-10T06:52:53.927Z,981.85
2018-05-10T06:53:53.529Z,981.82
2018-05-10T06:54:53.763Z,981.85
2018-05-10T06:55:53.997Z,981.85
2018-05-10T06:56:54.231Z,981.86
2018-05-10T06:57:54.466Z,981.83
2018-05-10T06:58:54.697Z,981.88
2018-05-10T06:59:54.928Z,981.89
2018-05-10T07:00:55.159Z,981.86
2018-05-10T07:01:55.391Z,981.90
2018-05-10T07:02:55.626Z,981.88
2018-05-10T07:03:55.857Z,981.86
2018-05-10T07:04:56.927Z,981.88
2018-05-10T07:05:56.284Z,981.93
2018-05-10T07:06:56.513Z,981.96
2018-05-10T07:07:56.747Z,981.98
2018-05-10T07:08:56.983Z,981.98
2018-05-10T07:09:57.454Z,981.97
2018-05-10T07:10:57.451Z,981.96
2018-05-10T07:11:57.684Z,981.97
2018-05-10T07:12:57.919Z,981.95
2018-05-10T07:13:58.146Z,981.95
2018-05-10T07:14:58.376Z,981.98
2018-05-10T07:15:58.610Z,981.95
2018-05-10T07:16:58.843Z,981.97
2018-05-10T07:17:59.077Z,981.97
2018-05-10T07:18:59.316Z,981.99
2018-05-10T07:19:59.536Z,982.00
2018-05-10T07:20:59.780Z,982.00
2018-05-10T07:22:00.016Z,982.01
2018-05-10T07:23:00.242Z,982.00
2018-05-10T07:24:00.478Z,982.04
2018-05-10T07:25:00.751Z,982.04
2018-05-10T07:26:00.943Z,982.04
2018-05-10T07:27:01.179Z,982.04
2018-05-10T07:28:01.413Z,982.03
2018-05-10T07:29:01.648Z,981.99
2018-05-10T07:30:01.879Z,982.01
2018-05-10T07:31:02.111Z,982.00
2018-05-10T07:32:02.350Z,982.03
2018-05-10T07:33:02.679Z,982.04
2018-05-10T07:34:02.812Z,982.14
2018-05-10T07:35:03.053Z,982.13
2018-05-10T07:36:03.270Z,982.16
2018-05-10T07:37:03.509Z,982.11
2018-05-10T07:38:03.737Z,982.17
2018-05-10T07:39:03.971Z,982.15
2018-05-10T07:40:04.202Z,982.14
2018-05-10T07:41:04.446Z,982.18
2018-05-10T07:42:04.696Z,982.19
2018-05-10T07:43:04.905Z,982.17
2018-05-10T07:44:05.137Z,982.18
2018-05-10T07:45:05.394Z,982.17
2018-05-10T07:46:05.617Z,982.13
2018-05-10T07:47:05.846Z,982.11
2018-05-10T07:48:06.076Z,982.07
2018-05-10T07:49:06.306Z,982.10
2018-05-10T07:50:06.556Z,982.12
2018-05-10T07:51:06.791Z,982.10
2018-05-10T07:52:07.024Z,982.11
2018-05-10T07:53:07.317Z,982.12
2018-05-10T07:54:07.493Z,982.07
2018-05-10T07:55:07.735Z,982.12
2018-05-10T07:56:07.958Z,982.09
2018-05-10T07:57:08.193Z,982.11
2018-05-10T07:58:08.427Z,982.08
2018-05-10T07:59:08.661Z,982.08
2018-05-10T08:00:08.896Z,982.10
2018-05-10T08:01:09.129Z,982.08
2018-05-10T08:02:09.415Z,982.09
2018-05-10T08:03:09.596Z,982.12
2018-05-10T08:04:09.809Z,982.08
2018-05-10T08:05:10.045Z,982.12
2018-05-10T08:06:10.279Z,982.16
2018-05-10T08:07:10.518Z,982.18
2018-05-10T08:08:10.747Z,982.19
2018-05-10T08:09:10.983Z,982.17
2018-05-10T08:10:11.318Z,982.19
2018-05-10T08:11:11.453Z,982.21
2018-05-10T08:12:11.696Z,982.19
2018-05-10T08:13:11.929Z,982.23
2018-05-10T08:14:12.164Z,982.24
2018-05-10T08:15:12.399Z,982.21
2018-05-10T08:16:12.634Z,982.22
2018-05-10T08:17:12.935Z,982.24
2018-05-10T08:18:13.103Z,982.23
2018-05-10T08:19:13.947Z,982.22
2018-05-10T08:20:13.560Z,982.21
2018-05-10T08:21:13.789Z,982.22
2018-05-10T08:22:14.027Z,982.22
2018-05-10T08:23:14.263Z,982.23
2018-05-10T08:24:14.586Z,982.23
2018-05-10T08:25:14.734Z,982.22
2018-05-10T08:26:14.968Z,982.18
2018-05-10T08:27:15.200Z,982.22
2018-05-10T08:28:15.436Z,982.23
2018-05-10T08:29:15.672Z,982.19
2018-05-10T08:30:15.965Z,982.22
2018-05-10T08:31:16.140Z,982.27
2018-05-10T08:32:16.370Z,982.31
2018-05-10T08:33:16.611Z,982.29
2018-05-10T08:34:16.842Z,982.25
2018-05-10T08:35:17.076Z,982.23
2018-05-10T08:36:17.313Z,982.25
2018-05-10T08:37:17.545Z,982.23
2018-05-10T08:38:17.780Z,982.28
2018-05-10T08:39:18.022Z,982.26
2018-05-10T08:40:18.258Z,982.27
2018-05-10T08:41:18.488Z,982.23
2018-05-10T08:42:18.724Z,982.29
2018-05-10T08:43:18.958Z,982.29
2018-05-10T08:44:19.196Z,982.32
2018-05-10T08:45:19.435Z,982.36
2018-05-10T08:46:19.672Z,982.33
2018-05-10T08:47:19.906Z,982.35
2018-05-10T08:48:20.142Z,982.38
2018-05-10T08:49:20.386Z,982.37
2018-05-10T08:50:20.620Z,982.37
2018-05-10T08:51:20.856Z,982.40
2018-05-10T08:52:21.092Z,982.42
2018-05-10T08:53:21.332Z,982.41
2018-05-10T08:54:21.565Z,982.42
2018-05-10T08:55:21.798Z,982.44
2018-05-10T08:56:22.043Z,982.40
2018-05-10T08:57:22.268Z,982.41
2018-05-10T08:58:22.504Z,982.41
2018-05-10T08:59:22.723Z,982.42
2018-05-10T09:00:22.966Z,982.45
2018-05-10T09:01:23.199Z,982.40
2018-05-10T09:02:23.436Z,982.42
2018-05-10T09:03:23.670Z,982.40
2018-05-10T09:04:23.906Z,982.42
2018-05-10T09:05:24.143Z,982.40
2018-05-10T09:06:24.375Z,982.45
2018-05-10T09:07:24.678Z,982.42
2018-05-10T09:08:24.849Z,982.45
2018-05-10T09:09:25.090Z,982.42
2018-05-10T09:10:25.311Z,982.42
2018-05-10T09:11:25.555Z,982.40
2018-05-10T09:12:25.787Z,982.43
2018-05-10T09:13:26.023Z,982.42
2018-05-10T09:14:26.263Z,982.40
2018-05-10T09:15:26.496Z,982.43
2018-05-10T09:16:26.730Z,982.44
2018-05-10T09:17:26.970Z,982.48
2018-05-10T09:18:27.204Z,982.46
2018-05-10T09:19:27.437Z,982.45
2018-05-10T09:20:27.671Z,982.47
2018-05-10T09:21:27.906Z,982.45
2018-05-10T09:22:28.146Z,982.42
2018-05-10T09:23:28.385Z,982.45
2018-05-10T09:24:28.613Z,982.45
2018-05-10T09:25:28.856Z,982.47
2018-05-10T09:26:29.090Z,982.46
2018-05-10T09:27:29.334Z,982.45
2018-05-10T09:28:29.562Z,982.50
2018-05-10T09:29:29.793Z,982.47
2018-05-10T09:30:30.026Z,982.48
2018-05-10T09:31:30.318Z,982.52
2018-05-10T09:32:30.496Z,982.47
2018-05-10T09:33:30.733Z,982.48
2018-05-10T09:34:30.971Z,982.50
2018-05-10T09:35:31.202Z,982.51
2018-05-10T09:36:31.439Z,982.48
2018-05-10T09:37:31.679Z,982.51
2018-05-10T09:38:31.940Z,982.49
2018-05-10T09:39:32.226Z,982.52
2018-05-10T09:40:32.414Z,982.52
2018-05-10T09:41:32.673Z,982.54
2018-05-10T09:42:32.910Z,982.54
2018-05-10T09:43:33.139Z,982.57
2018-05-10T09:44:33.390Z,982.56
2018-05-10T09:45:33.630Z,982.55
2018-05-10T09:46:33.849Z,982.58
2018-05-10T09:47:34.110Z,982.60
2018-05-10T09:48:34.345Z,982.59
2018-05-10T09:49:34.581Z,982.59
2018-05-10T09:50:34.817Z,982.56
2018-05-10T09:51:35.056Z,982.58
2018-05-10T09:52:35.325Z,982.56
2018-05-10T09:53:35.531Z,982.58
2018-05-10T09:54:35.767Z,982.57
2018-05-10T09:55:36.011Z,982.57
2018-05-10T09:56:36.241Z,982.58
2018-05-10T09:57:36.475Z,982.58
2018-05-10T09:58:36.711Z,982.60
2018-05-10T09:59:36.950Z,982.59
2018-05-10T10:00:37.185Z,982.59
2018-05-10T10:01:37.421Z,982.59
2018-05-10T10:02:37.663Z,982.58
2018-05-10T10:03:37.888Z,982.59
2018-05-10T10:04:38.128Z,982.57
2018-05-10T10:05:38.364Z,982.54
2018-05-10T10:06:38.600Z,982.54
2018-05-10T10:07:38.836Z,982.57
2018-05-10T10:08:39.076Z,982.59
2018-05-10T10:09:39.309Z,982.58
2018-05-10T10:10:39.549Z,982.58
2018-05-10T10:11:39.817Z,982.57
2018-05-10T10:12:40.020Z,982.54
2018-05-10T10:13:40.255Z,982.58
2018-05-10T10:14:40.493Z,982.57
2018-05-10T10:15:40.753Z,982.61
2018-05-10T10:16:40.966Z,982.63
2018-05-10T10:17:41.370Z,982.57
2018-05-10T10:18:41.445Z,982.58
2018-05-10T10:19:41.679Z,982.59
2018-05-10T10:20:41.922Z,982.54
2018-05-10T10:21:42.159Z,982.58
2018-05-10T10:22:42.401Z,982.56
2018-05-10T10:23:42.637Z,982.53
2018-05-10T10:24:42.877Z,982.56
2018-05-10T10:25:43.110Z,982.54
2018-05-10T10:26:43.352Z,982.58
2018-05-10T10:27:43.591Z,982.60
2018-05-10T10:28:43.820Z,982.58
2018-05-10T10:29:44.059Z,982.61
2018-05-10T10:30:44.296Z,982.56
2018-05-10T10:31:44.528Z,982.57
2018-05-10T10:32:44.764Z,982.56
2018-05-10T10:33:45.001Z,982.54
2018-05-10T10:34:45.240Z,982.49
2018-05-10T10:35:45.472Z,982.52
2018-05-10T10:36:45.712Z,982.50
2018-05-10T10:37:45.954Z,982.51
2018-05-10T10:38:46.188Z,982.55
2018-05-10T10:39:46.428Z,982.55
2018-05-10T10:40:46.663Z,982.55
2018-05-10T10:41:46.902Z,982.53
2018-05-10T10:42:47.135Z,982.57
2018-05-10T10:43:47.369Z,982.60
2018-05-10T10:44:47.608Z,982.63
2018-05-10T10:45:47.849Z,982.59
2018-05-10T10:46:48.085Z,982.67
2018-05-10T10:47:48.325Z,982.65
2018-05-10T10:48:48.560Z,982.65
2018-05-10T10:49:48.797Z,982.62
2018-05-10T10:50:49.037Z,982.68
2018-05-10T10:51:49.276Z,982.71
2018-05-10T10:52:49.575Z,982.72
2018-05-10T10:53:49.809Z,982.72
2018-05-10T10:54:49.991Z,982.74
2018-05-10T10:55:50.271Z,982.76
2018-05-10T10:56:50.466Z,982.73
2018-05-10T10:57:50.701Z,982.77
2018-05-10T10:58:50.939Z,982.74
2018-05-10T10:59:51.181Z,982.74
2018-05-10T11:00:51.414Z,982.75
2018-05-10T11:01:51.710Z,982.73
2018-05-10T11:02:51.891Z,982.77
2018-05-10T11:03:52.131Z,982.80
2018-05-10T11:04:52.366Z,982.87
2018-05-10T11:05:52.604Z,982.85
2018-05-10T11:06:52.838Z,982.80
2018-05-10T11:07:53.077Z,982.86
2018-05-10T11:08:53.384Z,982.86
2018-05-10T11:09:53.558Z,982.84
2018-05-10T11:10:53.790Z,982.88
2018-05-10T11:11:54.030Z,982.86
2018-05-10T11:12:54.268Z,982.87
2018-05-10T11:13:54.508Z,982.86
2018-05-10T11:14:54.771Z,982.89
2018-05-10T11:15:54.981Z,982.85
2018-05-10T11:16:55.220Z,982.89
2018-05-10T11:17:55.460Z,982.86
2018-05-10T11:18:55.699Z,982.89
2018-05-10T11:19:55.936Z,982.88
2018-05-10T11:20:56.176Z,982.92
2018-05-10T11:21:56.412Z,982.89
2018-05-10T11:22:56.653Z,982.93
2018-05-10T11:23:56.890Z,982.88
2018-05-10T11:24:57.128Z,982.91
2018-05-10T11:25:57.372Z,982.92
2018-05-10T11:26:57.611Z,982.92
2018-05-10T11:27:57.852Z,982.95
2018-05-10T11:28:58.088Z,982.96
2018-05-10T11:29:58.328Z,982.98
2018-05-10T11:30:58.567Z,982.93
2018-05-10T11:31:58.808Z,982.91
2018-05-10T11:32:59.059Z,982.92
2018-05-10T11:33:59.281Z,982.94
2018-05-10T11:34:59.522Z,982.93
2018-05-10T11:35:59.758Z,982.98
2018-05-10T11:36:59.996Z,982.95
2018-05-10T11:38:00.236Z,982.93
2018-05-10T11:39:00.501Z,982.88
2018-05-10T11:40:00.725Z,982.91
2018-05-10T11:41:00.962Z,982.90
2018-05-10T11:42:01.199Z,982.94
2018-05-10T11:43:01.437Z,982.96
2018-05-10T11:44:01.676Z,982.94
2018-05-10T11:45:01.913Z,982.93
2018-05-10T11:46:02.149Z,982.95
2018-05-10T11:47:02.397Z,982.94
2018-05-10T11:48:02.630Z,982.89
2018-05-10T11:49:02.871Z,982.99
2018-05-10T11:50:03.110Z,982.96
2018-05-10T11:51:03.348Z,983.03
2018-05-10T11:52:03.589Z,982.98
2018-05-10T11:53:03.830Z,983.01
2018-05-10T11:54:04.074Z,983.02
2018-05-10T11:55:04.308Z,982.99
2018-05-10T11:56:04.547Z,983.01
2018-05-10T11:57:04.785Z,983.02
2018-05-10T11:58:05.033Z,983.02
2018-05-10T11:59:05.263Z,983.06
2018-05-10T12:00:05.500Z,983.05
2018-05-10T12:01:05.752Z,983.12
2018-05-10T12:02:05.990Z,983.12
2018-05-10T12:03:06.229Z,983.16
2018-05-10T12:04:06.468Z,983.18
2018-05-10T12:05:06.704Z,983.25
2018-05-10T12:06:06.973Z,983.29
2018-05-10T12:07:07.168Z,983.28
2018-05-10T12:08:07.408Z,983.28
2018-05-10T12:09:07.648Z,983.30
2018-05-10T12:10:07.886Z,983.32
2018-05-10T12:11:08.123Z,983.30
2018-05-10T12:12:08.361Z,983.33
2018-05-10T12:13:08.599Z,983.32
2018-05-10T12:14:08.835Z,983.40
2018-05-10T12:15:09.073Z,983.41
2018-05-10T12:16:09.311Z,983.42
2018-05-10T12:17:09.559Z,983.42
2018-05-10T12:18:09.788Z,983.48
2018-05-10T12:19:10.104Z,983.46
2018-05-10T12:20:10.272Z,983.47
2018-05-10T12:21:10.512Z,983.44
2018-05-10T12:22:10.751Z,983.41
2018-05-10T12:23:10.990Z,983.34
2018-05-10T12:24:11.228Z,983.37
2018-05-10T12:25:11.467Z,983.38
2018-05-10T12:26:11.707Z,983.33
2018-05-10T12:27:11.946Z,983.37
2018-05-10T12:28:12.192Z,983.37
2018-05-10T12:29:12.419Z,983.40
2018-05-10T12:30:12.658Z,983.46
2018-05-10T12:31:12.899Z,983.55